sensor_id;sensor_type;location;lat;lon;timestamp;P1;durP1;ratioP1;P2;durP2;ratioP2
24677;SDS011;12800;53.094;8.778;2023-04-01T00:00:32;8.30;;;5.67;;
24677;SDS011;12800;53.094;8.778;2023-04-01T00:02:58;7.40;;;4.93;;
24677;SDS011;12800;53.094;8.778;2023-04-01T00:05:23;7.57;;;5.80;;
24677;SDS011;12800;53.094;8.778;2023-04-01T00:07:50;9.93;;;5.80;;
24677;SDS011;12800;53.094;8.778;2023-04-01T00:10:16;8.57;;;4.83;;
24677;SDS011;12800;53.094;8.778;2023-04-01T00:12:41;6.97;;;5.63;;
24677;SDS011;12800;53.094;8.778;2023-04-01T00:15:08;6.37;;;5.20;;
24677;SDS011;12800;53.094;8.778;2023-04-01T00:17:35;6.73;;;5.03;;
24677;SDS011;12800;53.094;8.778;2023-04-01T00:20:01;6.90;;;5.10;;
24677;SDS011;12800;53.094;8.778;2023-04-01T00:22:28;7.40;;;5.27;;
24677;SDS011;12800;53.094;8.778;2023-04-01T00:24:54;6.20;;;4.57;;
24677;SDS011;12800;53.094;8.778;2023-04-01T00:27:20;6.47;;;5.00;;
24677;SDS011;12800;53.094;8.778;2023-04-01T00:29:46;5.83;;;5.10;;
24677;SDS011;12800;53.094;8.778;2023-04-01T00:32:12;8.57;;;6.00;;
24677;SDS011;12800;53.094;8.778;2023-04-01T00:34:39;7.10;;;5.37;;
24677;SDS011;12800;53.094;8.778;2023-04-01T00:37:08;6.97;;;5.10;;
24677;SDS011;12800;53.094;8.778;2023-04-01T00:39:34;6.47;;;5.17;;
24677;SDS011;12800;53.094;8.778;2023-04-01T00:42:02;6.80;;;6.10;;
24677;SDS011;12800;53.094;8.778;2023-04-01T00:44:30;7.53;;;5.43;;
24677;SDS011;12800;53.094;8.778;2023-04-01T00:46:58;10.03;;;6.43;;
24677;SDS011;12800;53.094;8.778;2023-04-01T00:49:29;7.20;;;5.37;;
24677;SDS011;12800;53.094;8.778;2023-04-01T00:51:58;6.30;;;5.70;;
24677;SDS011;12800;53.094;8.778;2023-04-01T00:54:26;6.20;;;5.47;;
24677;SDS011;12800;53.094;8.778;2023-04-01T00:56:58;7.10;;;5.80;;
24677;SDS011;12800;53.094;8.778;2023-04-01T00:59:27;7.97;;;6.00;;
24677;SDS011;12800;53.094;8.778;2023-04-01T01:01:56;6.53;;;5.83;;
24677;SDS011;12800;53.094;8.778;2023-04-01T01:04:22;16.43;;;11.70;;
24677;SDS011;12800;53.094;8.778;2023-04-01T01:06:59;9.10;;;6.13;;
24677;SDS011;12800;53.094;8.778;2023-04-01T01:09:48;9.30;;;6.50;;
24677;SDS011;12800;53.094;8.778;2023-04-01T01:15:47;7.07;;;5.07;;
24677;SDS011;12800;53.094;8.778;2023-04-01T01:18:28;8.37;;;5.13;;
24677;SDS011;12800;53.094;8.778;2023-04-01T01:24:08;7.47;;;5.30;;
24677;SDS011;12800;53.094;8.778;2023-04-01T01:35:51;7.00;;;5.23;;
24677;SDS011;12800;53.094;8.778;2023-04-01T01:38:24;6.63;;;5.60;;
24677;SDS011;12800;53.094;8.778;2023-04-01T01:40:52;5.70;;;5.10;;
24677;SDS011;12800;53.094;8.778;2023-04-01T01:43:24;5.80;;;5.20;;
24677;SDS011;12800;53.094;8.778;2023-04-01T01:45:54;6.93;;;5.10;;
24677;SDS011;12800;53.094;8.778;2023-04-01T01:48:23;7.30;;;5.13;;
24677;SDS011;12800;53.094;8.778;2023-04-01T01:50:51;6.40;;;5.10;;
24677;SDS011;12800;53.094;8.778;2023-04-01T01:53:17;6.20;;;5.30;;
24677;SDS011;12800;53.094;8.778;2023-04-01T01:55:44;5.83;;;5.23;;
24677;SDS011;12800;53.094;8.778;2023-04-01T01:58:13;5.83;;;5.23;;
24677;SDS011;12800;53.094;8.778;2023-04-01T02:00:55;5.90;;;5.40;;
24677;SDS011;12800;53.094;8.778;2023-04-01T02:03:25;6.50;;;5.30;;
24677;SDS011;12800;53.094;8.778;2023-04-01T02:05:53;6.37;;;5.53;;
24677;SDS011;12800;53.094;8.778;2023-04-01T02:08:40;6.70;;;5.00;;
24677;SDS011;12800;53.094;8.778;2023-04-01T02:11:12;7.00;;;5.60;;
24677;SDS011;12800;53.094;8.778;2023-04-01T02:14:24;5.83;;;5.20;;
24677;SDS011;12800;53.094;8.778;2023-04-01T02:16:38;6.20;;;5.53;;
24677;SDS011;12800;53.094;8.778;2023-04-01T02:19:15;7.57;;;6.07;;
24677;SDS011;12800;53.094;8.778;2023-04-01T02:21:47;5.93;;;5.40;;
24677;SDS011;12800;53.094;8.778;2023-04-01T02:24:16;8.23;;;5.63;;
24677;SDS011;12800;53.094;8.778;2023-04-01T02:26:42;6.40;;;5.80;;
24677;SDS011;12800;53.094;8.778;2023-04-01T02:29:10;6.10;;;5.60;;
24677;SDS011;12800;53.094;8.778;2023-04-01T02:31:37;5.80;;;5.10;;
24677;SDS011;12800;53.094;8.778;2023-04-01T02:34:02;7.37;;;5.90;;
24677;SDS011;12800;53.094;8.778;2023-04-01T02:36:29;6.33;;;5.60;;
24677;SDS011;12800;53.094;8.778;2023-04-01T02:38:54;5.73;;;5.13;;
24677;SDS011;12800;53.094;8.778;2023-04-01T02:41:27;7.10;;;6.03;;
24677;SDS011;12800;53.094;8.778;2023-04-01T02:43:55;7.53;;;5.80;;
24677;SDS011;12800;53.094;8.778;2023-04-01T02:46:22;7.17;;;5.27;;
24677;SDS011;12800;53.094;8.778;2023-04-01T02:48:47;7.00;;;6.20;;
24677;SDS011;12800;53.094;8.778;2023-04-01T02:51:13;5.97;;;5.37;;
24677;SDS011;12800;53.094;8.778;2023-04-01T02:53:39;6.03;;;5.43;;
24677;SDS011;12800;53.094;8.778;2023-04-01T02:56:05;8.67;;;5.50;;
24677;SDS011;12800;53.094;8.778;2023-04-01T02:58:30;7.23;;;5.40;;
24677;SDS011;12800;53.094;8.778;2023-04-01T03:00:56;7.27;;;6.10;;
24677;SDS011;12800;53.094;8.778;2023-04-01T03:03:21;8.10;;;6.00;;
24677;SDS011;12800;53.094;8.778;2023-04-01T03:05:47;8.73;;;6.07;;
24677;SDS011;12800;53.094;8.778;2023-04-01T03:08:13;12.47;;;5.97;;
24677;SDS011;12800;53.094;8.778;2023-04-01T03:10:38;6.40;;;5.80;;
24677;SDS011;12800;53.094;8.778;2023-04-01T03:13:04;7.23;;;5.60;;
24677;SDS011;12800;53.094;8.778;2023-04-01T03:15:29;6.13;;;5.53;;
24677;SDS011;12800;53.094;8.778;2023-04-01T03:17:55;7.73;;;6.17;;
24677;SDS011;12800;53.094;8.778;2023-04-01T03:20:21;6.70;;;5.40;;
24677;SDS011;12800;53.094;8.778;2023-04-01T03:22:46;6.70;;;5.50;;
24677;SDS011;12800;53.094;8.778;2023-04-01T03:25:12;6.40;;;5.60;;
24677;SDS011;12800;53.094;8.778;2023-04-01T03:27:38;7.17;;;5.63;;
24677;SDS011;12800;53.094;8.778;2023-04-01T03:30:04;7.03;;;5.33;;
24677;SDS011;12800;53.094;8.778;2023-04-01T03:32:30;7.30;;;5.07;;
24677;SDS011;12800;53.094;8.778;2023-04-01T03:34:56;6.23;;;4.87;;
24677;SDS011;12800;53.094;8.778;2023-04-01T03:37:22;5.93;;;5.33;;
24677;SDS011;12800;53.094;8.778;2023-04-01T03:39:48;5.87;;;5.30;;
24677;SDS011;12800;53.094;8.778;2023-04-01T03:42:14;5.00;;;4.50;;
24677;SDS011;12800;53.094;8.778;2023-04-01T03:44:40;5.63;;;4.67;;
24677;SDS011;12800;53.094;8.778;2023-04-01T03:47:05;7.07;;;4.90;;
24677;SDS011;12800;53.094;8.778;2023-04-01T03:49:32;5.20;;;4.43;;
24677;SDS011;12800;53.094;8.778;2023-04-01T03:51:58;5.83;;;4.97;;
24677;SDS011;12800;53.094;8.778;2023-04-01T03:54:23;6.27;;;4.37;;
24677;SDS011;12800;53.094;8.778;2023-04-01T03:56:49;6.57;;;5.00;;
24677;SDS011;12800;53.094;8.778;2023-04-01T03:59:15;5.33;;;4.27;;
24677;SDS011;12800;53.094;8.778;2023-04-01T04:01:41;6.27;;;4.37;;
24677;SDS011;12800;53.094;8.778;2023-04-01T04:04:06;8.93;;;4.80;;
24677;SDS011;12800;53.094;8.778;2023-04-01T04:06:32;4.33;;;3.70;;
24677;SDS011;12800;53.094;8.778;2023-04-01T04:08:58;4.87;;;4.30;;
24677;SDS011;12800;53.094;8.778;2023-04-01T04:11:24;6.33;;;3.83;;
24677;SDS011;12800;53.094;8.778;2023-04-01T04:13:50;6.50;;;4.20;;
24677;SDS011;12800;53.094;8.778;2023-04-01T04:16:17;8.37;;;4.33;;
24677;SDS011;12800;53.094;8.778;2023-04-01T04:18:42;4.63;;;4.10;;
24677;SDS011;12800;53.094;8.778;2023-04-01T04:21:11;5.90;;;3.77;;
24677;SDS011;12800;53.094;8.778;2023-04-01T04:23:38;4.53;;;3.50;;
24677;SDS011;12800;53.094;8.778;2023-04-01T04:26:05;4.30;;;3.33;;
24677;SDS011;12800;53.094;8.778;2023-04-01T04:28:33;4.77;;;3.87;;
24677;SDS011;12800;53.094;8.778;2023-04-01T04:30:59;5.17;;;3.80;;
24677;SDS011;12800;53.094;8.778;2023-04-01T04:33:25;5.60;;;4.00;;
24677;SDS011;12800;53.094;8.778;2023-04-01T04:35:54;6.43;;;4.53;;
24677;SDS011;12800;53.094;8.778;2023-04-01T04:38:21;6.27;;;3.80;;
24677;SDS011;12800;53.094;8.778;2023-04-01T04:40:46;5.43;;;3.60;;
24677;SDS011;12800;53.094;8.778;2023-04-01T04:43:13;6.17;;;3.90;;
24677;SDS011;12800;53.094;8.778;2023-04-01T04:45:40;5.00;;;3.77;;
24677;SDS011;12800;53.094;8.778;2023-04-01T04:48:09;3.97;;;3.63;;
24677;SDS011;12800;53.094;8.778;2023-04-01T04:50:41;4.50;;;4.10;;
24677;SDS011;12800;53.094;8.778;2023-04-01T04:53:09;6.13;;;3.60;;
24677;SDS011;12800;53.094;8.778;2023-04-01T04:55:35;4.67;;;3.90;;
24677;SDS011;12800;53.094;8.778;2023-04-01T04:58:01;4.40;;;3.20;;
24677;SDS011;12800;53.094;8.778;2023-04-01T05:00:26;3.90;;;3.47;;
24677;SDS011;12800;53.094;8.778;2023-04-01T05:02:52;5.23;;;3.33;;
24677;SDS011;12800;53.094;8.778;2023-04-01T05:05:18;4.30;;;2.93;;
24677;SDS011;12800;53.094;8.778;2023-04-01T05:07:43;4.70;;;3.00;;
24677;SDS011;12800;53.094;8.778;2023-04-01T05:10:09;4.17;;;2.90;;
24677;SDS011;12800;53.094;8.778;2023-04-01T05:12:35;5.27;;;3.40;;
24677;SDS011;12800;53.094;8.778;2023-04-01T05:15:07;5.00;;;3.90;;
24677;SDS011;12800;53.094;8.778;2023-04-01T05:17:33;4.70;;;3.20;;
24677;SDS011;12800;53.094;8.778;2023-04-01T05:19:59;7.63;;;3.57;;
24677;SDS011;12800;53.094;8.778;2023-04-01T05:22:24;5.53;;;4.33;;
24677;SDS011;12800;53.094;8.778;2023-04-01T05:24:50;5.67;;;3.60;;
24677;SDS011;12800;53.094;8.778;2023-04-01T05:27:19;4.40;;;3.40;;
24677;SDS011;12800;53.094;8.778;2023-04-01T05:29:45;6.37;;;3.33;;
24677;SDS011;12800;53.094;8.778;2023-04-01T05:32:10;4.80;;;3.43;;
24677;SDS011;12800;53.094;8.778;2023-04-01T05:34:36;7.03;;;3.90;;
24677;SDS011;12800;53.094;8.778;2023-04-01T05:37:01;4.03;;;3.20;;
24677;SDS011;12800;53.094;8.778;2023-04-01T05:39:27;5.07;;;3.70;;
24677;SDS011;12800;53.094;8.778;2023-04-01T05:41:53;3.90;;;3.23;;
24677;SDS011;12800;53.094;8.778;2023-04-01T05:44:18;3.67;;;3.33;;
24677;SDS011;12800;53.094;8.778;2023-04-01T05:46:44;3.40;;;3.10;;
24677;SDS011;12800;53.094;8.778;2023-04-01T05:49:10;4.00;;;2.73;;
24677;SDS011;12800;53.094;8.778;2023-04-01T05:51:36;4.77;;;3.33;;
24677;SDS011;12800;53.094;8.778;2023-04-01T05:54:01;2.93;;;2.67;;
24677;SDS011;12800;53.094;8.778;2023-04-01T05:56:29;5.00;;;3.47;;
24677;SDS011;12800;53.094;8.778;2023-04-01T05:58:54;6.37;;;3.20;;
24677;SDS011;12800;53.094;8.778;2023-04-01T06:01:20;4.80;;;3.47;;
24677;SDS011;12800;53.094;8.778;2023-04-01T06:03:46;5.43;;;3.77;;
24677;SDS011;12800;53.094;8.778;2023-04-01T06:06:15;5.90;;;3.13;;
24677;SDS011;12800;53.094;8.778;2023-04-01T06:08:49;5.30;;;3.10;;
24677;SDS011;12800;53.094;8.778;2023-04-01T06:19:51;4.43;;;3.93;;
24677;SDS011;12800;53.094;8.778;2023-04-01T06:27:49;3.77;;;2.83;;
24677;SDS011;12800;53.094;8.778;2023-04-01T06:33:33;4.87;;;3.77;;
24677;SDS011;12800;53.094;8.778;2023-04-01T06:36:34;4.33;;;2.77;;
24677;SDS011;12800;53.094;8.778;2023-04-01T06:39:11;4.17;;;2.80;;
24677;SDS011;12800;53.094;8.778;2023-04-01T06:42:06;2.80;;;2.60;;
24677;SDS011;12800;53.094;8.778;2023-04-01T06:44:44;3.77;;;2.60;;
24677;SDS011;12800;53.094;8.778;2023-04-01T06:47:34;3.87;;;2.70;;
24677;SDS011;12800;53.094;8.778;2023-04-01T06:50:32;2.30;;;2.00;;
24677;SDS011;12800;53.094;8.778;2023-04-01T06:55:46;7.33;;;5.07;;
24677;SDS011;12800;53.094;8.778;2023-04-01T06:58:23;4.30;;;2.90;;
24677;SDS011;12800;53.094;8.778;2023-04-01T07:00:57;5.63;;;3.13;;
24677;SDS011;12800;53.094;8.778;2023-04-01T07:03:29;3.77;;;3.20;;
24677;SDS011;12800;53.094;8.778;2023-04-01T07:06:04;2.67;;;2.30;;
24677;SDS011;12800;53.094;8.778;2023-04-01T07:08:35;3.10;;;2.70;;
24677;SDS011;12800;53.094;8.778;2023-04-01T07:11:06;2.73;;;2.30;;
24677;SDS011;12800;53.094;8.778;2023-04-01T07:16:17;3.80;;;2.20;;
24677;SDS011;12800;53.094;8.778;2023-04-01T07:24:14;4.90;;;2.90;;
24677;SDS011;12800;53.094;8.778;2023-04-01T07:26:52;5.13;;;3.40;;
24677;SDS011;12800;53.094;8.778;2023-04-01T07:29:20;2.60;;;2.40;;
24677;SDS011;12800;53.094;8.778;2023-04-01T07:34:28;2.73;;;2.10;;
24677;SDS011;12800;53.094;8.778;2023-04-01T07:37:06;4.17;;;2.30;;
24677;SDS011;12800;53.094;8.778;2023-04-01T07:48:19;2.97;;;2.13;;
24677;SDS011;12800;53.094;8.778;2023-04-01T07:56:48;3.10;;;1.73;;
24677;SDS011;12800;53.094;8.778;2023-04-01T07:59:37;2.10;;;1.40;;
24677;SDS011;12800;53.094;8.778;2023-04-01T08:07:44;2.60;;;1.87;;
24677;SDS011;12800;53.094;8.778;2023-04-01T08:18:15;2.40;;;1.77;;
24677;SDS011;12800;53.094;8.778;2023-04-01T08:20:47;5.57;;;3.90;;
24677;SDS011;12800;53.094;8.778;2023-04-01T08:23:26;2.57;;;2.10;;
24677;SDS011;12800;53.094;8.778;2023-04-01T08:28:29;2.07;;;1.27;;
24677;SDS011;12800;53.094;8.778;2023-04-01T08:31:09;1.43;;;1.33;;
24677;SDS011;12800;53.094;8.778;2023-04-01T08:33:42;3.17;;;1.50;;
24677;SDS011;12800;53.094;8.778;2023-04-01T08:36:32;2.07;;;1.30;;
24677;SDS011;12800;53.094;8.778;2023-04-01T08:39:04;2.50;;;1.13;;
24677;SDS011;12800;53.094;8.778;2023-04-01T08:50:20;1.40;;;1.20;;
24677;SDS011;12800;53.094;8.778;2023-04-01T08:52:55;2.67;;;1.37;;
24677;SDS011;12800;53.094;8.778;2023-04-01T08:58:59;3.63;;;1.40;;
24677;SDS011;12800;53.094;8.778;2023-04-01T09:01:56;4.40;;;1.20;;
24677;SDS011;12800;53.094;8.778;2023-04-01T09:07:35;3.47;;;1.60;;
24677;SDS011;12800;53.094;8.778;2023-04-01T09:10:28;1.27;;;1.13;;
24677;SDS011;12800;53.094;8.778;2023-04-01T09:35:25;4.20;;;1.00;;
24677;SDS011;12800;53.094;8.778;2023-04-01T09:51:51;1.10;;;0.90;;
24677;SDS011;12800;53.094;8.778;2023-04-01T10:15:52;0.70;;;0.70;;
24677;SDS011;12800;53.094;8.778;2023-04-01T10:21:36;0.77;;;0.45;;
24677;SDS011;12800;53.094;8.778;2023-04-01T10:24:30;1.27;;;0.70;;
24677;SDS011;12800;53.094;8.778;2023-04-01T10:35:09;0.63;;;0.43;;
24677;SDS011;12800;53.094;8.778;2023-04-01T10:54:29;1.33;;;0.80;;
24677;SDS011;12800;53.094;8.778;2023-04-01T11:11:52;0.50;;;0.40;;
24677;SDS011;12800;53.094;8.778;2023-04-01T11:23:36;0.80;;;0.47;;
24677;SDS011;12800;53.094;8.778;2023-04-01T11:34:52;4.60;;;3.53;;
24677;SDS011;12800;53.094;8.778;2023-04-01T11:42:57;1.10;;;0.70;;
24677;SDS011;12800;53.094;8.778;2023-04-01T12:01:26;1.00;;;0.70;;
24677;SDS011;12800;53.094;8.778;2023-04-01T12:14:53;1.03;;;0.67;;
24677;SDS011;12800;53.094;8.778;2023-04-01T12:19:53;0.77;;;0.47;;
24677;SDS011;12800;53.094;8.778;2023-04-01T12:25:39;0.83;;;0.70;;
24677;SDS011;12800;53.094;8.778;2023-04-01T12:39:44;0.87;;;0.70;;
24677;SDS011;12800;53.094;8.778;2023-04-01T12:42:37;0.90;;;0.80;;
24677;SDS011;12800;53.094;8.778;2023-04-01T13:08:16;0.50;;;0.37;;
24677;SDS011;12800;53.094;8.778;2023-04-01T13:13:31;0.67;;;0.40;;
24677;SDS011;12800;53.094;8.778;2023-04-01T13:18:58;1.47;;;0.47;;
24677;SDS011;12800;53.094;8.778;2023-04-01T13:32:59;5.67;;;4.07;;
24677;SDS011;12800;53.094;8.778;2023-04-01T13:35:37;1.10;;;0.67;;
24677;SDS011;12800;53.094;8.778;2023-04-01T13:44:06;1.30;;;0.40;;
24677;SDS011;12800;53.094;8.778;2023-04-01T13:52:47;1.77;;;1.00;;
24677;SDS011;12800;53.094;8.778;2023-04-01T14:00:51;0.90;;;0.70;;
24677;SDS011;12800;53.094;8.778;2023-04-01T14:14:16;0.60;;;0.50;;
24677;SDS011;12800;53.094;8.778;2023-04-01T14:17:10;0.87;;;0.53;;
24677;SDS011;12800;53.094;8.778;2023-04-01T14:38:10;1.40;;;1.20;;
24677;SDS011;12800;53.094;8.778;2023-04-01T14:41:15;1.07;;;0.80;;
24677;SDS011;12800;53.094;8.778;2023-04-01T14:47:08;3.50;;;2.47;;
24677;SDS011;12800;53.094;8.778;2023-04-01T14:49:46;2.93;;;1.30;;
24677;SDS011;12800;53.094;8.778;2023-04-01T14:52:27;1.80;;;1.50;;
24677;SDS011;12800;53.094;8.778;2023-04-01T14:54:56;1.73;;;1.20;;
24677;SDS011;12800;53.094;8.778;2023-04-01T14:57:28;1.73;;;1.37;;
24677;SDS011;12800;53.094;8.778;2023-04-01T15:00:14;1.80;;;1.50;;
24677;SDS011;12800;53.094;8.778;2023-04-01T15:02:45;2.07;;;1.67;;
24677;SDS011;12800;53.094;8.778;2023-04-01T15:10:43;2.97;;;1.80;;
24677;SDS011;12800;53.094;8.778;2023-04-01T15:13:25;2.90;;;2.33;;
24677;SDS011;12800;53.094;8.778;2023-04-01T15:21:55;3.13;;;1.80;;
24677;SDS011;12800;53.094;8.778;2023-04-01T15:24:26;2.47;;;2.20;;
24677;SDS011;12800;53.094;8.778;2023-04-01T15:27:13;2.50;;;2.00;;
24677;SDS011;12800;53.094;8.778;2023-04-01T15:29:55;2.47;;;1.93;;
24677;SDS011;12800;53.094;8.778;2023-04-01T15:35:28;10.07;;;5.83;;
24677;SDS011;12800;53.094;8.778;2023-04-01T15:38:30;14.53;;;9.37;;
24677;SDS011;12800;53.094;8.778;2023-04-01T15:41:16;3.20;;;1.87;;
24677;SDS011;12800;53.094;8.778;2023-04-01T15:43:48;5.47;;;3.27;;
24677;SDS011;12800;53.094;8.778;2023-04-01T15:46:23;2.30;;;1.80;;
24677;SDS011;12800;53.094;8.778;2023-04-01T15:48:57;2.50;;;2.23;;
24677;SDS011;12800;53.094;8.778;2023-04-01T16:02:31;2.47;;;1.63;;
24677;SDS011;12800;53.094;8.778;2023-04-01T16:10:44;4.27;;;2.10;;
24677;SDS011;12800;53.094;8.778;2023-04-01T16:24:34;3.97;;;2.90;;
24677;SDS011;12800;53.094;8.778;2023-04-01T16:27:12;2.47;;;1.97;;
24677;SDS011;12800;53.094;8.778;2023-04-01T16:32:34;2.60;;;1.90;;
24677;SDS011;12800;53.094;8.778;2023-04-01T16:37:53;1.73;;;1.53;;
24677;SDS011;12800;53.094;8.778;2023-04-01T16:43:24;2.43;;;1.50;;
24677;SDS011;12800;53.094;8.778;2023-04-01T16:56:47;3.90;;;1.93;;
24677;SDS011;12800;53.094;8.778;2023-04-01T16:59:24;6.03;;;3.60;;
24677;SDS011;12800;53.094;8.778;2023-04-01T17:02:16;6.93;;;2.93;;
24677;SDS011;12800;53.094;8.778;2023-04-01T17:04:53;4.57;;;1.83;;
24677;SDS011;12800;53.094;8.778;2023-04-01T17:15:30;3.83;;;2.43;;
24677;SDS011;12800;53.094;8.778;2023-04-01T17:18:19;4.17;;;2.70;;
24677;SDS011;12800;53.094;8.778;2023-04-01T17:21:11;2.90;;;2.20;;
24677;SDS011;12800;53.094;8.778;2023-04-01T17:23:51;11.43;;;4.83;;
24677;SDS011;12800;53.094;8.778;2023-04-01T17:26:30;28.17;;;14.93;;
24677;SDS011;12800;53.094;8.778;2023-04-01T17:29:10;20.43;;;9.90;;
24677;SDS011;12800;53.094;8.778;2023-04-01T17:37:10;3.53;;;2.50;;
24677;SDS011;12800;53.094;8.778;2023-04-01T17:42:40;3.27;;;2.23;;
24677;SDS011;12800;53.094;8.778;2023-04-01T17:45:21;3.93;;;2.47;;
24677;SDS011;12800;53.094;8.778;2023-04-01T17:48:09;7.67;;;2.60;;
24677;SDS011;12800;53.094;8.778;2023-04-01T17:53:33;3.50;;;2.10;;
24677;SDS011;12800;53.094;8.778;2023-04-01T17:59:16;4.17;;;2.33;;
24677;SDS011;12800;53.094;8.778;2023-04-01T18:02:10;3.70;;;2.43;;
24677;SDS011;12800;53.094;8.778;2023-04-01T18:10:04;2.77;;;1.97;;
24677;SDS011;12800;53.094;8.778;2023-04-01T18:12:56;2.90;;;2.27;;
24677;SDS011;12800;53.094;8.778;2023-04-01T18:17:59;4.77;;;2.87;;
24677;SDS011;12800;53.094;8.778;2023-04-01T18:26:14;3.87;;;2.33;;
24677;SDS011;12800;53.094;8.778;2023-04-01T18:28:59;4.57;;;2.60;;
24677;SDS011;12800;53.094;8.778;2023-04-01T18:32:07;4.13;;;2.40;;
24677;SDS011;12800;53.094;8.778;2023-04-01T18:34:50;2.50;;;2.03;;
24677;SDS011;12800;53.094;8.778;2023-04-01T18:38:00;2.23;;;2.00;;
24677;SDS011;12800;53.094;8.778;2023-04-01T18:40:32;5.27;;;2.37;;
24677;SDS011;12800;53.094;8.778;2023-04-01T18:45:46;7.33;;;3.83;;
24677;SDS011;12800;53.094;8.778;2023-04-01T18:48:41;7.70;;;3.03;;
24677;SDS011;12800;53.094;8.778;2023-04-01T18:51:24;5.40;;;3.03;;
24677;SDS011;12800;53.094;8.778;2023-04-01T19:18:56;3.33;;;2.40;;
24677;SDS011;12800;53.094;8.778;2023-04-01T19:31:57;4.77;;;2.50;;
24677;SDS011;12800;53.094;8.778;2023-04-01T19:37:25;5.83;;;3.97;;
24677;SDS011;12800;53.094;8.778;2023-04-01T19:46:14;5.73;;;4.20;;
24677;SDS011;12800;53.094;8.778;2023-04-01T19:51:26;6.87;;;3.20;;
24677;SDS011;12800;53.094;8.778;2023-04-01T19:57:12;5.83;;;2.87;;
24677;SDS011;12800;53.094;8.778;2023-04-01T20:07:51;5.03;;;3.00;;
24677;SDS011;12800;53.094;8.778;2023-04-01T20:10:29;7.50;;;3.40;;
24677;SDS011;12800;53.094;8.778;2023-04-01T20:15:43;5.40;;;2.90;;
24677;SDS011;12800;53.094;8.778;2023-04-01T20:18:18;5.20;;;2.90;;
24677;SDS011;12800;53.094;8.778;2023-04-01T20:21:00;8.30;;;3.27;;
24677;SDS011;12800;53.094;8.778;2023-04-01T20:23:34;6.53;;;2.80;;
24677;SDS011;12800;53.094;8.778;2023-04-01T20:26:13;4.77;;;2.97;;
24677;SDS011;12800;53.094;8.778;2023-04-01T20:28:45;4.30;;;2.53;;
24677;SDS011;12800;53.094;8.778;2023-04-01T20:31:23;4.80;;;2.60;;
24677;SDS011;12800;53.094;8.778;2023-04-01T20:39:42;5.57;;;2.90;;
24677;SDS011;12800;53.094;8.778;2023-04-01T20:47:51;5.07;;;2.97;;
24677;SDS011;12800;53.094;8.778;2023-04-01T20:53:16;6.30;;;2.70;;
24677;SDS011;12800;53.094;8.778;2023-04-01T21:15:03;4.97;;;2.50;;
24677;SDS011;12800;53.094;8.778;2023-04-01T21:17:51;4.37;;;2.47;;
24677;SDS011;12800;53.094;8.778;2023-04-01T21:20:38;6.93;;;2.37;;
24677;SDS011;12800;53.094;8.778;2023-04-01T21:48:03;3.27;;;2.33;;
24677;SDS011;12800;53.094;8.778;2023-04-01T21:50:43;4.30;;;1.90;;
24677;SDS011;12800;53.094;8.778;2023-04-01T21:59:24;5.37;;;2.37;;
24677;SDS011;12800;53.094;8.778;2023-04-01T22:07:59;7.27;;;2.67;;
24677;SDS011;12800;53.094;8.778;2023-04-01T22:16:40;5.40;;;2.40;;
24677;SDS011;12800;53.094;8.778;2023-04-01T22:33:10;4.70;;;2.53;;
24677;SDS011;12800;53.094;8.778;2023-04-01T22:35:55;4.23;;;2.17;;
24677;SDS011;12800;53.094;8.778;2023-04-01T22:46:56;7.03;;;2.43;;
24677;SDS011;12800;53.094;8.778;2023-04-01T22:49:36;3.93;;;1.93;;
24677;SDS011;12800;53.094;8.778;2023-04-01T22:52:12;4.33;;;1.90;;
24677;SDS011;12800;53.094;8.778;2023-04-01T22:54:49;4.53;;;2.70;;
24677;SDS011;12800;53.094;8.778;2023-04-01T22:57:35;7.30;;;2.77;;
24677;SDS011;12800;53.094;8.778;2023-04-01T23:00:44;11.67;;;2.77;;
24677;SDS011;12800;53.094;8.778;2023-04-01T23:08:36;4.40;;;2.30;;
24677;SDS011;12800;53.094;8.778;2023-04-01T23:16:53;6.03;;;2.50;;
24677;SDS011;12800;53.094;8.778;2023-04-01T23:19:22;8.90;;;2.43;;
24677;SDS011;12800;53.094;8.778;2023-04-01T23:27:02;4.77;;;2.13;;
24677;SDS011;12800;53.094;8.778;2023-04-01T23:29:37;4.03;;;2.07;;
24677;SDS011;12800;53.094;8.778;2023-04-01T23:32:05;4.30;;;1.97;;
24677;SDS011;12800;53.094;8.778;2023-04-01T23:34:39;3.43;;;1.53;;
24677;SDS011;12800;53.094;8.778;2023-04-01T23:37:11;4.33;;;1.90;;
24677;SDS011;12800;53.094;8.778;2023-04-01T23:39:39;7.37;;;1.73;;
24677;SDS011;12800;53.094;8.778;2023-04-01T23:42:14;6.20;;;1.90;;
24677;SDS011;12800;53.094;8.778;2023-04-01T23:44:47;3.50;;;1.60;;
24677;SDS011;12800;53.094;8.778;2023-04-01T23:47:22;7.60;;;1.60;;
24677;SDS011;12800;53.094;8.778;2023-04-01T23:49:52;2.47;;;1.50;;
24677;SDS011;12800;53.094;8.778;2023-04-01T23:52:25;6.40;;;1.70;;
24677;SDS011;12800;53.094;8.778;2023-04-01T23:57:27;3.37;;;2.10;;
